This is the latest recevied weather packets stored in our database for station/object K1ABC. If no packets are shown the sender has not sent any weather packets the latest 10 day(s).
| Time | Temp. | Humidity | Pressure | Rain* | Wind** | Luminosity | Snow |
|---|---|---|---|---|---|---|---|
| 1777759678 | 10.56° C | 81% | 1009.9 hPa | 0 mm | - | - | - |
| 1777759002 | 10.56° C | 79% | 1009.8 hPa | 0 mm | - | - | - |
| 1777757521 | 11.11° C | 75% | 1009.9 hPa | 0 mm | - | - | - |
| 1777755672 | 12.22° C | 73% | 1009.8 hPa | 0 mm | - | - | - |
| 1777753530 | 12.22° C | 71% | 1009.8 hPa | 0 mm | - | - | - |
| 1777752198 | 12.78° C | 71% | 1009.8 hPa | 0 mm | - | - | - |
| 1777751942 | 13.33° C | 70% | 1009.9 hPa | 0 mm | - | - | - |
| 1777751625 | 13.33° C | 71% | 1009.9 hPa | 0 mm | - | - | - |
| 1777749919 | 13.89° C | 67% | 1010.2 hPa | 0 mm | - | - | - |
| 1777748151 | 12.78° C | 68% | 1010.4 hPa | 0 mm | - | - | - |
| 1777745570 | 15° C | 64% | 1010.6 hPa | 0 mm | - | - | - |
| 1777743621 | 13.89° C | 71% | 1010.8 hPa | 0 mm | - | - | - |
| 1777743373 | 13.33° C | 74% | 1010.7 hPa | 0 mm | - | - | - |
| 1777743006 | 12.78° C | 74% | 1010.9 hPa | 0 mm | - | - | - |
| 1777742691 | 12.78° C | 73% | 1011 hPa | 0 mm | - | - | - |
| 1777742121 | 13.33° C | 73% | 1011.1 hPa | 0 mm | - | - | - |
| 1777741871 | 13.89° C | 71% | 1011.1 hPa | 0 mm | - | - | - |
| 1777741746 | 14.44° C | 70% | 1011.1 hPa | 0 mm | - | - | - |
| 1777740714 | 12.78° C | 73% | 1011.3 hPa | 0 mm | - | - | - |
| 1777738832 | 12.78° C | 75% | 1011.5 hPa | 0 mm | - | - | - |
| 1777738582 | 12.22° C | 76% | 1011.5 hPa | 0 mm | - | - | - |
| 1777737876 | 11.67° C | 78% | 1011.5 hPa | 0 mm | - | - | - |
| 1777737555 | 11.67° C | 80% | 1011.5 hPa | 0 mm | - | - | - |
| 1777735047 | 10.56° C | 84% | 1011.5 hPa | 0 mm | - | - | - |
| 1777734606 | 10.56° C | 83% | 1011.6 hPa | 0 mm | - | - | - |
* Rain latest hour (hover to see other rain measurements)
** Current wind speed in m/s (hover to see current wind gust speed)